Time;durP1;ratioP1;P1;durP2;ratioP2;P2;SDS_P1;SDS_P2;PMS_P1;PMS_P2;Temp;Humidity;BMP_temperature;BMP_pressure;BME280_temperature;BME280_humidity;BME280_pressure;Samples;Min_cycle;Max_cycle;Signal;HPM_P1;HPM_P2
2022/01/26 00:00:55;;;;;;;24.92;17.33;;;;;;;0.86;100.00;99754.00;10306299;28;20046;-56
2022/01/26 00:06:05;;;;;;;16.92;14.35;;;;;;;0.72;100.00;99754.59;10315134;28;20042;-55
2022/01/26 00:11:09;;;;;;;17.48;14.02;;;;;;;0.69;100.00;99752.06;10301803;28;20046;-56
2022/01/26 00:16:23;;;;;;;16.80;13.60;;;;;;;0.75;100.00;99751.81;10320667;28;20141;-58
2022/01/26 00:21:31;;;;;;;20.98;15.20;;;;;;;0.70;100.00;99748.50;10322691;28;20064;-58
2022/01/26 00:27:03;;;;;;;19.85;15.98;;;;;;;0.66;100.00;99746.88;10325703;28;20061;-58
2022/01/26 00:42:58;;;;;;;23.17;18.05;;;;;;;0.61;100.00;99753.28;10324771;28;20427;-56
2022/01/26 00:48:05;;;;;;;24.47;17.50;;;;;;;0.52;100.00;99751.00;10344825;28;20138;-58
2022/01/26 00:53:12;;;;;;;24.73;18.25;;;;;;;0.56;100.00;99755.25;10376229;28;20050;-59
2022/01/26 00:58:17;;;;;;;28.00;20.65;;;;;;;0.56;100.00;99746.44;10361682;28;20137;-59
2022/01/26 01:03:21;;;;;;;24.83;18.30;;;;;;;0.55;100.00;99744.72;10315738;28;20546;-59
2022/01/26 01:08:25;;;;;;;28.20;19.50;;;;;;;0.49;100.00;99734.34;10315381;28;20093;-57
2022/01/26 01:13:34;;;;;;;29.38;19.80;;;;;;;0.53;100.00;99742.09;10314700;28;20537;-58
2022/01/26 01:18:44;;;;;;;20.20;14.13;;;;;;;0.55;100.00;99724.34;10317255;28;20121;-59
2022/01/26 01:29:22;;;;;;;26.48;18.92;;;;;;;0.51;100.00;99720.13;10279884;28;20085;-57
2022/01/26 01:34:29;;;;;;;24.33;17.40;;;;;;;0.52;100.00;99721.84;10298694;28;20057;-57
2022/01/26 01:39:33;;;;;;;24.35;17.33;;;;;;;0.47;100.00;99720.31;10314394;28;20495;-58
2022/01/26 01:44:39;;;;;;;24.15;16.15;;;;;;;0.47;100.00;99726.47;10315344;28;20042;-57
2022/01/26 01:49:42;;;;;;;22.95;15.95;;;;;;;0.41;100.00;99732.88;10318796;28;20077;-60
2022/01/26 01:54:51;;;;;;;24.50;16.33;;;;;;;0.38;100.00;99737.47;10313260;28;20076;-58
2022/01/26 01:59:55;;;;;;;22.63;16.40;;;;;;;0.34;100.00;99742.03;10315050;28;20049;-58
2022/01/26 02:04:59;;;;;;;23.98;16.15;;;;;;;0.30;100.00;99741.28;10311352;28;20062;-58
2022/01/26 02:10:02;;;;;;;26.67;16.58;;;;;;;0.24;100.00;99746.84;10315073;28;20503;-57
2022/01/26 02:15:13;;;;;;;24.55;16.75;;;;;;;0.29;100.00;99750.16;10314335;28;20560;-57
2022/01/26 02:20:53;;;;;;;28.10;17.02;;;;;;;0.34;100.00;99759.72;10316363;28;20491;-56
2022/01/26 02:52:53;;;;;;;26.10;15.35;;;;;;;0.08;100.00;99720.13;10317807;28;20145;-58
2022/01/26 02:58:41;;;;;;;26.08;15.82;;;;;;;0.12;100.00;99710.25;10321709;28;20551;-57
2022/01/26 03:03:51;;;;;;;28.55;14.90;;;;;;;0.08;100.00;99711.28;10319274;28;20050;-56
2022/01/26 03:09:01;;;;;;;28.30;15.67;;;;;;;0.01;100.00;99702.72;10325238;28;20101;-59
2022/01/26 03:14:12;;;;;;;29.90;17.00;;;;;;;0.08;100.00;99698.91;10318706;28;20326;-58
2022/01/26 03:19:21;;;;;;;33.50;17.45;;;;;;;0.09;100.00;99699.75;10322014;28;20046;-58
2022/01/26 03:29:58;;;;;;;31.00;16.63;;;;;;;0.16;100.00;99695.94;10321525;28;20038;-59
2022/01/26 03:35:01;;;;;;;31.92;17.48;;;;;;;0.21;100.00;99704.56;10316796;28;20081;-58
2022/01/26 03:40:13;;;;;;;32.65;17.20;;;;;;;0.15;100.00;99710.97;10320709;28;20034;-58
2022/01/26 03:45:16;;;;;;;33.55;17.88;;;;;;;0.18;100.00;99704.66;10318789;28;20487;-57
2022/01/26 03:50:20;;;;;;;31.85;16.88;;;;;;;0.20;100.00;99696.69;10302115;28;20132;-58
2022/01/26 03:55:26;;;;;;;34.47;17.63;;;;;;;0.16;100.00;99685.34;10319351;28;20057;-59
2022/01/26 04:00:30;;;;;;;37.35;18.33;;;;;;;0.18;100.00;99687.91;10302873;28;20056;-56
2022/01/26 04:05:33;;;;;;;34.58;17.35;;;;;;;0.03;100.00;99702.69;10318888;28;20754;-54
2022/01/26 04:10:49;;;;;;;32.10;16.63;;;;;;;-0.05;100.00;99695.88;10322959;28;20046;-57
2022/01/26 04:15:52;;;;;;;31.55;17.80;;;;;;;-0.09;100.00;99694.31;10318638;28;20570;-54
2022/01/26 04:21:00;;;;;;;38.55;18.40;;;;;;;-0.14;100.00;99685.66;10316577;28;20114;-53
2022/01/26 04:26:05;;;;;;;41.67;19.77;;;;;;;-0.16;100.00;99695.47;10316877;28;20073;-58
2022/01/26 04:31:09;;;;;;;38.28;18.85;;;;;;;-0.22;100.00;99699.22;10302475;28;20050;-57
2022/01/26 04:36:17;;;;;;;30.15;16.05;;;;;;;-0.25;100.00;99691.41;10320955;28;20042;-57
2022/01/26 04:41:30;;;;;;;33.58;18.30;;;;;;;-0.26;100.00;99683.50;10296989;28;20050;-57
2022/01/26 04:46:33;;;;;;;37.33;18.85;;;;;;;-0.24;100.00;99687.84;10320011;28;20129;-54
2022/01/26 04:51:37;;;;;;;39.20;18.35;;;;;;;-0.26;100.00;99678.22;10298567;28;20066;-54
2022/01/26 04:56:42;;;;;;;37.08;17.88;;;;;;;-0.26;100.00;99670.28;10297846;28;20149;-56
2022/01/26 05:01:45;;;;;;;39.97;17.48;;;;;;;-0.27;100.00;99665.91;10298150;28;20153;-57
2022/01/26 05:06:49;;;;;;;31.70;15.45;;;;;;;-0.28;100.00;99654.44;10315439;28;20054;-56
2022/01/26 05:11:55;;;;;;;25.65;13.52;;;;;;;-0.29;100.00;99654.53;10314688;28;20503;-57
2022/01/26 05:16:59;;;;;;;26.85;14.57;;;;;;;-0.27;100.00;99657.94;10316063;28;20042;-58
2022/01/26 05:22:02;;;;;;;20.52;12.75;;;;;;;-0.28;100.00;99650.94;10314764;28;20038;-58
2022/01/26 05:27:07;;;;;;;19.10;12.10;;;;;;;-0.24;100.00;99642.81;10298172;28;20546;-58
2022/01/26 05:32:10;;;;;;;22.70;13.05;;;;;;;-0.26;100.00;99647.31;10296666;28;20077;-57
2022/01/26 05:37:14;;;;;;;26.42;13.32;;;;;;;-0.04;100.00;99635.81;10316177;28;20046;-56
2022/01/26 05:42:18;;;;;;;15.70;10.75;;;;;;;0.28;100.00;99637.13;10298159;28;20050;-56
2022/01/26 05:47:21;;;;;;;19.40;10.98;;;;;;;0.32;100.00;99626.38;10301462;28;20794;-58
2022/01/26 05:52:24;;;;;;;16.33;11.40;;;;;;;0.48;100.00;99637.16;10314617;28;20078;-54
2022/01/26 05:57:29;;;;;;;18.38;12.05;;;;;;;0.40;100.00;99641.00;10312111;28;20049;-55
2022/01/26 06:02:33;;;;;;;17.38;11.90;;;;;;;0.37;100.00;99635.00;10294241;28;20137;-54
2022/01/26 06:07:36;;;;;;;15.63;11.02;;;;;;;0.37;100.00;99629.69;10296104;28;20422;-54
2022/01/26 06:12:41;;;;;;;15.40;10.77;;;;;;;0.22;100.00;99626.75;10310581;28;20847;-54
2022/01/26 06:17:46;;;;;;;13.65;10.35;;;;;;;0.04;100.00;99639.00;10350989;23;20185;-56
2022/01/26 06:22:49;;;;;;;15.82;11.00;;;;;;;0.02;100.00;99653.25;10349327;28;20549;-58
2022/01/26 06:27:55;;;;;;;18.70;12.60;;;;;;;-0.09;100.00;99661.63;10321322;28;20136;-58
2022/01/26 06:33:00;;;;;;;24.15;13.68;;;;;;;-0.22;100.00;99666.59;10327054;28;20486;-57
2022/01/26 06:38:04;;;;;;;26.67;15.15;;;;;;;-0.25;100.00;99675.53;10311949;28;20049;-58
2022/01/26 06:43:12;;;;;;;31.38;15.73;;;;;;;-0.34;100.00;99681.16;10333080;28;20038;-57
2022/01/26 06:53:33;;;;;;;38.15;18.10;;;;;;;-0.46;100.00;99653.41;10320841;28;20053;-60
2022/01/26 06:58:38;;;;;;;39.15;18.65;;;;;;;-0.48;100.00;99652.59;10332556;28;20490;-56
2022/01/26 07:03:41;;;;;;;38.88;18.42;;;;;;;-0.47;100.00;99665.75;10338937;28;20108;-56
2022/01/26 07:08:45;;;;;;;40.90;19.10;;;;;;;-0.49;100.00;99656.16;10338392;28;20092;-56
2022/01/26 07:13:52;;;;;;;40.40;18.80;;;;;;;-0.46;100.00;99661.34;10326232;28;20050;-59
2022/01/26 07:24:16;;;;;;;22.60;15.37;;;;;;;-0.52;100.00;99650.97;10339094;28;20060;-60
2022/01/26 07:29:23;;;;;;;26.20;16.15;;;;;;;-0.47;100.00;99630.50;10341625;28;20480;-61
2022/01/26 07:34:27;;;;;;;24.48;15.30;;;;;;;-0.44;100.00;99622.44;10345107;28;20069;-58
2022/01/26 07:39:42;;;;;;;26.63;16.65;;;;;;;-0.38;100.00;99640.72;10329813;28;20060;-61
2022/01/26 07:44:50;;;;;;;21.20;14.93;;;;;;;-0.41;100.00;99624.09;10346131;28;20069;-60
2022/01/26 07:49:56;;;;;;;17.10;12.23;;;;;;;-0.36;100.00;99648.63;10345567;28;20305;-60
2022/01/26 07:54:59;;;;;;;15.30;11.38;;;;;;;-0.33;100.00;99638.75;10340252;28;20052;-57
2022/01/26 08:00:07;;;;;;;14.30;10.45;;;;;;;-0.28;100.00;99638.56;10349119;28;20462;-57
2022/01/26 08:05:17;;;;;;;14.07;10.05;;;;;;;-0.29;100.00;99626.25;10347117;28;20053;-58
2022/01/26 08:10:21;;;;;;;18.40;11.38;;;;;;;-0.26;100.00;99622.59;10336585;28;20513;-59
2022/01/26 08:15:26;;;;;;;13.73;10.75;;;;;;;-0.25;100.00;99629.63;10349331;28;20077;-60
2022/01/26 08:20:30;;;;;;;15.27;11.65;;;;;;;-0.24;100.00;99618.97;10345328;28;20509;-59
2022/01/26 08:25:33;;;;;;;18.58;13.63;;;;;;;-0.27;100.00;99631.47;10338946;28;20112;-57
2022/01/26 08:30:38;;;;;;;16.50;12.35;;;;;;;-0.28;100.00;99627.09;10343401;28;20124;-59
2022/01/26 08:36:07;;;;;;;17.63;13.40;;;;;;;-0.30;100.00;99608.63;10325471;28;20501;-59
2022/01/26 08:41:11;;;;;;;19.20;13.70;;;;;;;-0.31;100.00;99609.53;10345763;28;20647;-58
2022/01/26 08:46:18;;;;;;;21.90;14.48;;;;;;;-0.39;100.00;99624.91;10344833;28;20153;-59
2022/01/26 08:51:21;;;;;;;22.77;16.33;;;;;;;-0.36;100.00;99622.13;10340569;28;20104;-61
2022/01/26 08:56:25;;;;;;;21.08;15.90;;;;;;;-0.38;100.00;99631.91;10342725;28;20168;-58
2022/01/26 09:01:30;;;;;;;21.77;15.50;;;;;;;-0.43;100.00;99634.75;10318488;28;20104;-60
2022/01/26 09:06:39;;;;;;;22.17;15.63;;;;;;;-0.44;100.00;99648.91;10343371;28;20042;-58
2022/01/26 09:11:42;;;;;;;24.15;16.13;;;;;;;-0.44;100.00;99635.69;10340361;28;20572;-60
2022/01/26 09:16:49;;;;;;;25.85;17.75;;;;;;;-0.43;100.00;99645.34;10326273;28;20050;-55
2022/01/26 09:21:52;;;;;;;24.48;17.65;;;;;;;-0.46;100.00;99653.41;10347888;28;20214;-54
2022/01/26 09:26:55;;;;;;;24.83;17.70;;;;;;;-0.40;100.00;99650.50;10345899;28;20046;-57
2022/01/26 09:32:00;;;;;;;27.40;17.58;;;;;;;-0.48;100.00;99636.72;10335146;28;20042;-58
2022/01/26 09:37:05;;;;;;;26.63;17.88;;;;;;;-0.45;100.00;99635.72;10340710;28;20084;-56
2022/01/26 09:42:09;;;;;;;25.48;17.27;;;;;;;-0.48;100.00;99656.13;10342340;28;20121;-57
2022/01/26 09:47:13;;;;;;;26.13;17.15;;;;;;;-0.48;100.00;99642.00;10341288;28;20073;-55
2022/01/26 09:52:21;;;;;;;22.52;16.50;;;;;;;-0.31;100.00;99643.97;10343399;28;20494;-55
2022/01/26 09:57:24;;;;;;;26.48;17.05;;;;;;;-0.41;100.00;99642.63;10315991;28;20137;-57
2022/01/26 10:02:30;;;;;;;28.17;17.33;;;;;;;-0.44;100.00;99640.97;10332302;28;20897;-58
2022/01/26 10:07:49;;;;;;;27.52;17.13;;;;;;;-0.42;100.00;99632.94;10334805;28;20039;-58
2022/01/26 10:18:21;;;;;;;25.23;17.02;;;;;;;-0.45;100.00;99652.47;10341418;28;20093;-58
2022/01/26 10:23:27;;;;;;;26.05;18.42;;;;;;;-0.35;100.00;99637.94;10318365;28;20167;-55
2022/01/26 10:28:41;;;;;;;24.52;16.45;;;;;;;-0.35;100.00;99637.94;10343738;28;20521;-57
2022/01/26 10:33:58;;;;;;;28.00;18.10;;;;;;;-0.36;100.00;99627.44;10331873;28;20054;-58
2022/01/26 10:39:05;;;;;;;22.85;15.32;;;;;;;-0.45;100.00;99630.41;10318834;28;20136;-57
2022/01/26 10:44:09;;;;;;;23.95;15.73;;;;;;;-0.50;100.00;99623.53;10345097;28;20522;-57
2022/01/26 10:49:19;;;;;;;27.77;17.58;;;;;;;-0.39;100.00;99604.56;10340998;28;20050;-58
2022/01/26 10:54:34;;;;;;;27.58;17.27;;;;;;;-0.40;100.00;99615.22;10353929;28;20490;-57
2022/01/26 10:59:40;;;;;;;31.42;18.55;;;;;;;-0.36;100.00;99601.78;10347460;28;20054;-54
2022/01/26 11:04:44;;;;;;;27.10;17.60;;;;;;;-0.37;100.00;99605.38;10347353;28;20149;-60
2022/01/26 11:09:49;;;;;;;28.13;17.40;;;;;;;-0.39;100.00;99609.84;10352000;28;20121;-59
2022/01/26 11:15:04;;;;;;;29.20;17.63;;;;;;;-0.37;100.00;99612.47;10330132;28;20061;-54
2022/01/26 11:20:20;;;;;;;26.52;16.88;;;;;;;-0.34;100.00;99617.59;10349725;28;20088;-58
2022/01/26 11:25:26;;;;;;;27.80;16.65;;;;;;;-0.30;100.00;99605.13;10342803;28;20053;-58
2022/01/26 11:30:33;;;;;;;27.95;17.40;;;;;;;-0.33;100.00;99598.16;10344455;28;20045;-55
2022/01/26 11:35:43;;;;;;;29.25;18.98;;;;;;;-0.32;100.00;99606.06;10343698;28;20049;-60
2022/01/26 11:46:10;;;;;;;25.08;17.27;;;;;;;-0.39;100.00;99623.09;10352946;28;20125;-53
2022/01/26 11:51:15;;;;;;;28.15;18.73;;;;;;;-0.40;100.00;99644.34;10351163;28;20561;-58
2022/01/26 11:56:21;;;;;;;32.42;21.55;;;;;;;-0.43;100.00;99653.28;10326197;28;20080;-58
2022/01/26 12:01:28;;;;;;;32.35;21.88;;;;;;;-0.45;100.00;99664.84;10338906;28;20065;-58
2022/01/26 12:06:35;;;;;;;36.63;22.40;;;;;;;-0.43;100.00;99647.13;10328701;28;20137;-59
2022/01/26 12:11:39;;;;;;;41.22;26.20;;;;;;;-0.43;100.00;99634.75;10331525;28;20447;-56
2022/01/26 12:16:47;;;;;;;35.67;24.67;;;;;;;-0.44;100.00;99637.44;10326007;28;20066;-59
2022/01/26 12:33:02;;;;;;;35.85;23.70;;;;;;;-0.55;100.00;99651.97;10318864;28;20069;-60
2022/01/26 12:38:14;;;;;;;35.65;23.25;;;;;;;-0.61;100.00;99652.22;10345943;28;20792;-60
2022/01/26 12:43:17;;;;;;;34.03;22.67;;;;;;;-0.68;100.00;99661.31;10339449;28;20077;-59
2022/01/26 12:48:34;;;;;;;33.88;21.92;;;;;;;-0.74;100.00;99657.13;10341379;28;20065;-59
2022/01/26 12:53:40;;;;;;;31.25;21.05;;;;;;;-0.79;100.00;99656.44;10323310;28;20598;-59
2022/01/26 12:58:44;;;;;;;32.47;21.08;;;;;;;-0.83;100.00;99657.47;10344706;28;20120;-64
2022/01/26 13:03:49;;;;;;;29.20;19.95;;;;;;;-0.86;100.00;99653.19;10342763;28;20138;-57
2022/01/26 13:08:54;;;;;;;27.38;18.92;;;;;;;-0.96;100.00;99652.66;10323392;28;20724;-59
2022/01/26 13:14:11;;;;;;;28.17;17.95;;;;;;;-1.00;100.00;99652.81;10343703;28;20129;-60
2022/01/26 13:24:54;;;;;;;22.42;16.48;;;;;;;-1.02;100.00;99634.38;10300210;28;20430;-60
2022/01/26 13:30:15;;;;;;;24.65;16.90;;;;;;;-0.96;100.00;99610.31;10299069;28;20043;-60
2022/01/26 13:35:38;;;;;;;24.33;16.30;;;;;;;-0.95;100.00;99612.06;10302255;28;20117;-61
2022/01/26 13:40:57;;;;;;;22.88;15.93;;;;;;;-0.95;100.00;99616.50;10310786;28;20148;-59
2022/01/26 13:46:29;;;;;;;21.02;14.32;;;;;;;-0.96;100.00;99591.81;10300512;28;20117;-60
2022/01/26 13:51:41;;;;;;;23.98;14.77;;;;;;;-0.92;100.00;99576.66;10286068;28;20076;-61
2022/01/26 13:56:57;;;;;;;23.77;15.75;;;;;;;-0.98;100.00;99579.56;10295758;28;20120;-60
2022/01/26 14:02:00;;;;;;;26.10;17.05;;;;;;;-0.99;100.00;99578.69;10301492;28;20134;-62
2022/01/26 14:07:05;;;;;;;25.98;16.00;;;;;;;-0.97;100.00;99563.63;10305905;28;20050;-60
2022/01/26 14:12:12;;;;;;;22.58;14.88;;;;;;;-0.98;100.00;99568.97;10305899;28;20134;-57
2022/01/26 14:17:16;;;;;;;21.85;14.25;;;;;;;-0.97;100.00;99568.91;10321152;28;20068;-59
2022/01/26 14:22:35;;;;;;;21.48;14.60;;;;;;;-1.00;100.00;99566.38;10345997;28;20057;-62
2022/01/26 14:27:43;;;;;;;22.92;15.63;;;;;;;-1.06;100.00;99568.44;10342504;28;20058;-60
2022/01/26 14:33:14;;;;;;;22.90;15.70;;;;;;;-1.05;100.00;99563.06;10346513;28;20074;-60
2022/01/26 14:54:45;;;;;;;20.95;14.65;;;;;;;-1.00;100.00;99552.31;10346898;28;20038;-62
2022/01/26 15:00:33;;;;;;;18.92;14.52;;;;;;;-0.99;100.00;99554.03;10356273;28;20046;-60
2022/01/26 15:43:47;;;;;;;19.27;14.10;;;;;;;-0.77;100.00;99540.81;10304729;28;20058;-63
2022/01/26 15:49:06;;;;;;;18.50;14.18;;;;;;;-0.78;100.00;99553.19;10336888;28;20108;-60
2022/01/26 16:04:19;;;;;;;22.53;15.53;;;;;;;-0.70;100.00;99552.88;10342326;28;20625;-60
2022/01/26 16:05:21;;;;;;;25.90;16.88;;;;;;;-0.68;100.00;99561.63;10351687;28;20077;-60
2022/01/26 16:21:13;;;;;;;;;;;;;;;-0.62;100.00;99548.13;10349596;28;20097;-63
2022/01/26 16:26:39;;;;;;;29.80;17.35;;;;;;;-0.57;100.00;99549.72;10348331;28;19951;-60
2022/01/26 17:26:09;;;;;;;34.22;19.80;;;;;;;0.72;100.00;99523.81;10349900;28;20115;-60
2022/01/26 17:47:24;;;;;;;36.05;20.45;;;;;;;0.05;100.00;99515.34;10348389;28;20141;-62
2022/01/26 18:46:20;;;;;;;34.92;18.35;;;;;;;0.03;100.00;99503.94;10407306;28;20046;-86
2022/01/26 18:51:44;;;;;;;40.45;19.48;;;;;;;0.08;100.00;99494.00;10361699;28;20061;-83
2022/01/26 18:56:47;;;;;;;37.30;20.17;;;;;;;0.07;100.00;99468.41;10374508;28;20058;-86
2022/01/26 19:01:55;;;;;;;37.75;19.90;;;;;;;0.11;100.00;99462.06;10376197;28;20137;-81
2022/01/26 19:07:02;;;;;;;35.95;19.65;;;;;;;0.10;100.00;99471.81;10380194;28;20076;-83
2022/01/26 19:12:09;;;;;;;38.05;19.85;;;;;;;0.12;100.00;99466.44;10397835;28;20136;-82
2022/01/26 19:17:19;;;;;;;38.42;19.67;;;;;;;0.10;100.00;99463.00;10394435;28;20430;-84
2022/01/26 19:22:46;;;;;;;33.00;18.20;;;;;;;0.14;100.00;99438.09;10382875;28;20058;-82
2022/01/26 19:27:58;;;;;;;36.80;19.42;;;;;;;0.17;100.00;99451.22;10386106;28;20379;-83
2022/01/26 19:33:29;;;;;;;39.08;20.60;;;;;;;0.19;100.00;99462.56;10377915;28;20140;-85
2022/01/26 19:44:05;;;;;;;;;;;;;;;0.23;100.00;99463.31;10378483;28;20054;-83
2022/01/26 19:54:31;;;;;;;39.90;21.10;;;;;;;0.30;100.00;99452.34;10409420;28;20046;-84
2022/01/26 19:59:35;;;;;;;39.22;21.48;;;;;;;0.30;100.00;99457.63;10377848;28;20586;-84
2022/01/26 20:04:40;;;;;;;40.22;21.00;;;;;;;0.34;100.00;99447.78;10371851;28;20569;-86
2022/01/26 20:09:46;;;;;;;43.78;21.55;;;;;;;0.35;100.00;99451.28;10395065;28;20054;-84
2022/01/26 20:14:49;;;;;;;40.05;21.83;;;;;;;0.38;100.00;99441.38;10371988;28;20134;-85
2022/01/26 20:19:54;;;;;;;42.20;20.42;;;;;;;0.35;100.00;99445.97;10410610;28;20068;-86
2022/01/26 20:24:58;;;;;;;40.72;20.02;;;;;;;0.37;100.00;99442.31;10394476;28;20109;-84
2022/01/26 20:30:09;;;;;;;41.72;21.50;;;;;;;0.39;100.00;99447.56;10395037;28;20140;-84
2022/01/26 20:35:15;;;;;;;41.20;21.30;;;;;;;0.52;100.00;99446.06;10366968;28;20053;-83
2022/01/26 20:40:19;;;;;;;41.38;22.17;;;;;;;0.50;100.00;99445.25;10372054;28;20062;-82
2022/01/26 20:45:23;;;;;;;41.50;21.55;;;;;;;0.52;100.00;99438.09;10369985;28;20057;-84
2022/01/26 20:50:30;;;;;;;43.40;22.45;;;;;;;0.56;100.00;99438.81;10383089;28;20050;-83
2022/01/26 20:55:34;;;;;;;41.15;20.38;;;;;;;0.54;100.00;99424.75;10370535;28;20088;-83
2022/01/26 21:00:38;;;;;;;37.65;20.23;;;;;;;0.55;100.00;99419.38;10370600;28;20115;-83
2022/01/26 21:05:43;;;;;;;39.42;20.38;;;;;;;0.51;100.00;99417.81;10369046;28;20068;-82
2022/01/26 21:10:46;;;;;;;41.83;20.77;;;;;;;0.60;100.00;99414.72;10370844;28;20152;-82
2022/01/26 21:16:07;;;;;;;43.40;22.33;;;;;;;0.56;100.00;99425.56;10384032;28;20135;-83
2022/01/26 21:21:12;;;;;;;41.85;19.58;;;;;;;0.57;100.00;99414.88;10366363;28;20092;-83
2022/01/26 21:26:20;;;;;;;40.97;20.50;;;;;;;0.59;100.00;99423.59;10370254;28;20065;-82
2022/01/26 21:31:25;;;;;;;41.75;21.52;;;;;;;0.58;100.00;99427.19;10371276;28;20052;-82
2022/01/26 21:36:31;;;;;;;39.10;19.05;;;;;;;0.58;100.00;99416.59;10364538;28;20092;-81
2022/01/26 21:41:38;;;;;;;41.40;20.10;;;;;;;0.61;100.00;99420.88;10371753;28;20053;-81
2022/01/26 21:46:43;;;;;;;39.28;19.52;;;;;;;0.62;100.00;99411.97;10376979;28;20767;-82
2022/01/26 21:51:50;;;;;;;39.35;19.08;;;;;;;0.58;100.00;99419.25;10364118;28;20109;-82
2022/01/26 21:56:54;;;;;;;39.33;19.95;;;;;;;0.58;100.00;99423.69;10374197;28;20044;-82
2022/01/26 22:01:57;;;;;;;41.47;19.58;;;;;;;0.60;100.00;99405.88;10384442;28;20133;-83
2022/01/26 22:07:02;;;;;;;37.17;18.77;;;;;;;0.54;100.00;99400.91;10377230;28;20045;-83
2022/01/26 22:12:07;;;;;;;41.30;19.77;;;;;;;0.50;100.00;99401.97;10384875;28;20042;-82
2022/01/26 22:17:10;;;;;;;39.80;19.75;;;;;;;0.48;100.00;99399.41;10370074;28;20054;-82
2022/01/26 22:22:15;;;;;;;39.83;19.75;;;;;;;0.49;100.00;99384.34;10368449;28;20081;-84
2022/01/26 22:27:25;;;;;;;34.40;16.48;;;;;;;0.47;100.00;99394.19;10379674;28;20046;-84
2022/01/26 22:32:29;;;;;;;37.05;18.05;;;;;;;0.48;100.00;99377.31;10401642;28;20046;-83
2022/01/26 22:37:34;;;;;;;35.38;17.55;;;;;;;0.49;100.00;99379.91;10374795;28;20494;-84
2022/01/26 22:42:37;;;;;;;37.00;16.65;;;;;;;0.45;100.00;99388.94;10379292;28;20092;-83
2022/01/26 22:47:41;;;;;;;34.70;16.98;;;;;;;0.45;100.00;99370.38;10397398;28;20459;-84
2022/01/26 22:52:45;;;;;;;36.55;17.60;;;;;;;0.45;100.00;99387.16;10380462;28;20598;-85
2022/01/26 22:57:48;;;;;;;39.38;19.02;;;;;;;0.46;100.00;99377.41;10378276;28;20068;-85
2022/01/26 23:02:52;;;;;;;33.55;16.63;;;;;;;0.47;100.00;99373.81;10380964;28;20129;-84
2022/01/26 23:08:16;;;;;;;34.53;16.60;;;;;;;0.52;100.00;99366.50;10387977;28;20406;-83
2022/01/26 23:13:20;;;;;;;35.35;18.20;;;;;;;0.51;100.00;99380.69;10383737;28;20133;-85
2022/01/26 23:18:23;;;;;;;36.88;19.42;;;;;;;0.50;100.00;99378.97;10375447;28;20074;-84
2022/01/26 23:23:31;;;;;;;39.15;19.25;;;;;;;0.49;100.00;99369.31;10391398;28;20575;-83
2022/01/26 23:29:04;;;;;;;46.70;21.63;;;;;;;0.47;100.00;99360.56;10377933;28;20045;-82
2022/01/26 23:34:27;;;;;;;39.25;19.60;;;;;;;0.46;100.00;99348.22;10368518;28;20125;-82
2022/01/26 23:39:48;;;;;;;43.80;21.65;;;;;;;0.44;100.00;99329.75;10390269;28;20050;-83
